createdAt,value
2019-01-19T00:01:45.986Z,0.20
2019-01-19T00:04:40.762Z,0.20
2019-01-19T00:07:30.023Z,0.20
2019-01-19T00:10:41.537Z,0.20
2019-01-19T00:13:24.730Z,0.20
2019-01-19T00:16:16.536Z,0.10
2019-01-19T00:19:30.188Z,0.10
2019-01-19T00:22:13.197Z,0.10
2019-01-19T00:25:15.849Z,0.10
2019-01-19T00:28:02.189Z,0.10
2019-01-19T00:30:45.421Z,0.10
2019-01-19T00:33:34.149Z,0.00
2019-01-19T00:36:17.242Z,0.00
2019-01-19T00:39:09.573Z,0.00
2019-01-19T00:41:58.913Z,0.00
2019-01-19T00:44:47.414Z,0.00
2019-01-19T00:47:47.017Z,0.00
2019-01-19T00:50:53.780Z,-0.10
2019-01-19T00:53:48.995Z,-0.10
2019-01-19T00:56:59.045Z,-0.10
2019-01-19T00:59:34.282Z,-0.20
2019-01-19T01:02:34.057Z,-0.20
2019-01-19T01:05:17.081Z,-0.20
2019-01-19T01:08:19.783Z,-0.20
2019-01-19T01:11:08.779Z,-0.20
2019-01-19T01:14:22.373Z,-0.30
2019-01-19T01:17:11.635Z,-0.30
2019-01-19T01:19:51.822Z,-0.30
2019-01-19T01:22:58.059Z,-0.40
2019-01-19T01:26:32.819Z,-0.40
2019-01-19T01:29:43.458Z,-0.40
2019-01-19T01:32:23.235Z,-0.40
2019-01-19T01:35:24.258Z,-0.50
2019-01-19T01:38:04.204Z,-0.50
2019-01-19T01:41:18.899Z,-0.50
2019-01-19T01:44:37.889Z,-0.60
2019-01-19T01:47:36.196Z,-0.60
2019-01-19T01:50:21.996Z,-0.60
2019-01-19T01:53:01.675Z,-0.70
2019-01-19T01:55:35.879Z,-0.70
2019-01-19T01:58:15.686Z,-0.70
2019-01-19T02:00:52.874Z,-0.70
2019-01-19T02:03:52.115Z,-0.70
2019-01-19T02:06:35.511Z,-0.80
2019-01-19T02:09:41.573Z,-0.80
2019-01-19T02:12:33.766Z,-0.80
2019-01-19T02:15:35.249Z,-0.80
2019-01-19T02:18:23.995Z,-0.90
2019-01-19T02:21:35.793Z,-0.90
2019-01-19T02:24:44.625Z,-0.90
2019-01-19T02:27:30.269Z,-0.90
2019-01-19T02:30:36.079Z,-0.90
2019-01-19T02:33:39.950Z,-1.00
2019-01-19T02:36:37.070Z,-1.00
2019-01-19T02:39:21.583Z,-1.00
2019-01-19T02:42:33.782Z,-1.00
2019-01-19T02:45:32.920Z,-1.00
2019-01-19T02:48:46.501Z,-1.00
2019-01-19T02:51:35.744Z,-1.00
2019-01-19T02:54:41.947Z,-1.00
2019-01-19T02:57:46.286Z,-1.00
2019-01-19T03:00:57.087Z,-1.10
2019-01-19T03:04:13.796Z,-1.10
2019-01-19T03:07:23.206Z,-1.10
2019-01-19T03:10:38.364Z,-1.10
2019-01-19T03:13:24.545Z,-1.10
2019-01-19T03:16:27.170Z,-1.10
2019-01-19T03:19:25.203Z,-1.10
2019-01-19T03:22:35.081Z,-1.10
2019-01-19T03:25:30.418Z,-1.10
2019-01-19T03:28:31.668Z,-1.10
2019-01-19T03:32:00.098Z,-1.10
2019-01-19T03:35:16.664Z,-1.10
2019-01-19T03:38:12.191Z,-1.10
2019-01-19T03:41:08.734Z,-1.20
2019-01-19T03:44:09.555Z,-1.20
2019-01-19T03:47:15.554Z,-1.20
2019-01-19T03:49:55.565Z,-1.20
2019-01-19T03:52:35.617Z,-1.20
2019-01-19T03:55:39.484Z,-1.20
2019-01-19T03:58:36.372Z,-1.30
2019-01-19T04:01:33.047Z,-1.30
2019-01-19T04:04:26.729Z,-1.30
2019-01-19T04:07:27.857Z,-1.30
2019-01-19T04:10:27.234Z,-1.30
2019-01-19T04:13:05.669Z,-1.30
2019-01-19T04:16:01.147Z,-1.40
2019-01-19T04:18:47.289Z,-1.30
2019-01-19T04:21:27.410Z,-1.40
2019-01-19T04:24:07.344Z,-1.40
2019-01-19T04:26:38.869Z,-1.40
2019-01-19T04:29:10.498Z,-1.40
2019-01-19T04:31:41.815Z,-1.40
2019-01-19T04:34:13.595Z,-1.40
2019-01-19T04:36:45.318Z,-1.30
2019-01-19T04:41:57.172Z,-1.40
2019-01-19T04:44:28.495Z,-1.30
2019-01-19T04:46:59.847Z,-1.30
2019-01-19T04:49:31.131Z,-1.30
2019-01-19T04:52:02.480Z,-1.30
2019-01-19T04:54:33.755Z,-1.30
2019-01-19T04:57:05.149Z,-1.30
2019-01-19T04:59:36.416Z,-1.30
2019-01-19T05:02:07.733Z,-1.30
2019-01-19T05:04:39.080Z,-1.30
2019-01-19T05:07:10.563Z,-1.30
2019-01-19T05:09:41.945Z,-1.30
2019-01-19T05:12:13.266Z,-1.30
2019-01-19T05:14:44.581Z,-1.30
2019-01-19T05:17:15.857Z,-1.30
2019-01-19T05:19:47.164Z,-1.30
2019-01-19T05:22:18.464Z,-1.30
2019-01-19T05:24:49.742Z,-1.30
2019-01-19T05:27:21.023Z,-1.30
2019-01-19T05:29:52.478Z,-1.30
2019-01-19T05:32:24.679Z,-1.30
2019-01-19T05:34:56.466Z,-1.30
2019-01-19T05:37:27.753Z,-1.30
2019-01-19T05:39:59.090Z,-1.30
2019-01-19T05:42:30.379Z,-1.30
2019-01-19T05:45:01.800Z,-1.30
2019-01-19T05:47:33.096Z,-1.30
2019-01-19T05:50:18.441Z,-1.40
2019-01-19T05:52:49.824Z,-1.40
2019-01-19T05:55:21.141Z,-1.40
2019-01-19T05:57:52.527Z,-1.40
2019-01-19T06:00:25.738Z,-1.40
2019-01-19T06:02:57.127Z,-1.40
2019-01-19T06:05:28.433Z,-1.40
2019-01-19T06:07:59.784Z,-1.40
2019-01-19T06:10:31.237Z,-1.40
2019-01-19T06:13:02.532Z,-1.40
2019-01-19T06:15:33.825Z,-1.40
2019-01-19T06:18:05.223Z,-1.40
2019-01-19T06:20:36.545Z,-1.40
2019-01-19T06:23:07.977Z,-1.40
2019-01-19T06:25:39.246Z,-1.40
2019-01-19T06:28:10.644Z,-1.40
2019-01-19T06:30:41.931Z,-1.40
2019-01-19T06:33:13.245Z,-1.40
2019-01-19T06:35:44.515Z,-1.40
2019-01-19T06:38:15.863Z,-1.40
2019-01-19T06:40:47.254Z,-1.40
2019-01-19T06:43:18.724Z,-1.50
2019-01-19T06:45:49.999Z,-1.50
2019-01-19T06:48:21.303Z,-1.50
2019-01-19T06:50:52.584Z,-1.50
2019-01-19T06:53:23.937Z,-1.50
2019-01-19T06:55:55.215Z,-1.50
2019-01-19T06:58:26.542Z,-1.50
2019-01-19T07:00:57.922Z,-1.50
2019-01-19T07:03:29.394Z,-1.50
2019-01-19T07:06:00.900Z,-1.50
2019-01-19T07:08:32.251Z,-1.60
2019-01-19T07:11:03.748Z,-1.60
2019-01-19T07:13:35.227Z,-1.60
2019-01-19T07:16:06.626Z,-1.60
2019-01-19T07:18:37.957Z,-1.60
2019-01-19T07:21:09.246Z,-1.60
2019-01-19T07:23:40.792Z,-1.60
2019-01-19T07:26:12.200Z,-1.60
2019-01-19T07:28:43.529Z,-1.60
2019-01-19T07:31:14.909Z,-1.60
2019-01-19T07:33:46.221Z,-1.60
2019-01-19T07:36:17.571Z,-1.60
2019-01-19T07:38:48.988Z,-1.60
2019-01-19T07:41:20.276Z,-1.60
2019-01-19T07:43:51.662Z,-1.60
2019-01-19T07:46:23.758Z,-1.60
2019-01-19T07:48:55.099Z,-1.60
2019-01-19T07:51:26.399Z,-1.60
2019-01-19T07:53:57.827Z,-1.50
2019-01-19T07:56:29.119Z,-1.60
2019-01-19T07:59:00.420Z,-1.60
2019-01-19T08:01:31.687Z,-1.60
2019-01-19T08:04:03.017Z,-1.60
2019-01-19T08:06:34.323Z,-1.60
2019-01-19T08:09:06.223Z,-1.50
2019-01-19T08:11:37.503Z,-1.50
2019-01-19T08:14:08.829Z,-1.50
2019-01-19T08:16:40.142Z,-1.50
2019-01-19T08:19:11.481Z,-1.50
2019-01-19T08:21:42.758Z,-1.50
2019-01-19T08:24:16.501Z,-1.50
2019-01-19T08:26:47.894Z,-1.50
2019-01-19T08:29:19.214Z,-1.40
2019-01-19T08:31:50.607Z,-1.40
2019-01-19T08:34:22.566Z,-1.40
2019-01-19T08:36:54.023Z,-1.40
2019-01-19T08:39:25.335Z,-1.40
2019-01-19T08:41:56.647Z,-1.40
2019-01-19T08:44:27.977Z,-1.30
2019-01-19T08:47:02.073Z,-1.30
2019-01-19T08:49:33.499Z,-1.30
2019-01-19T08:52:04.936Z,-1.30
2019-01-19T08:54:36.799Z,-1.30
2019-01-19T08:57:08.465Z,-1.30
2019-01-19T08:59:39.883Z,-1.20
2019-01-19T09:02:11.821Z,-1.20
2019-01-19T09:04:43.759Z,-1.20
2019-01-19T09:07:15.069Z,-1.20
2019-01-19T09:09:48.374Z,-1.10
2019-01-19T09:12:19.771Z,-1.10
2019-01-19T09:14:51.204Z,-1.00
2019-01-19T09:17:22.537Z,-1.10
2019-01-19T09:19:53.890Z,-1.10
2019-01-19T09:22:25.166Z,-1.00
2019-01-19T09:24:56.628Z,-1.00
2019-01-19T09:27:28.496Z,-1.00
2019-01-19T09:30:00.246Z,-0.90
2019-01-19T09:32:50.251Z,-0.90
2019-01-19T09:35:21.596Z,-0.90
2019-01-19T09:37:52.885Z,-0.90
2019-01-19T09:40:24.202Z,-0.80
2019-01-19T09:42:55.553Z,-0.80
2019-01-19T09:45:26.887Z,-0.80
2019-01-19T09:47:58.286Z,-0.70
2019-01-19T09:50:29.840Z,-0.70
2019-01-19T09:53:01.152Z,-0.60
2019-01-19T09:55:32.463Z,-0.60
2019-01-19T09:58:03.746Z,-0.60
2019-01-19T10:00:37.544Z,-0.50
2019-01-19T10:03:08.278Z,-0.50
2019-01-19T10:05:39.563Z,-0.50
2019-01-19T10:08:10.895Z,-0.40
2019-01-19T10:10:43.095Z,-0.40
2019-01-19T10:13:14.390Z,-0.40
2019-01-19T10:15:45.904Z,-0.30
2019-01-19T10:18:17.992Z,-0.30
2019-01-19T10:20:49.658Z,-0.30
2019-01-19T10:23:20.931Z,-0.30
2019-01-19T10:25:52.307Z,-0.20
2019-01-19T10:28:23.720Z,-0.20
2019-01-19T10:30:55.126Z,-0.20
2019-01-19T10:33:26.390Z,-0.10
2019-01-19T10:35:57.831Z,-0.10
2019-01-19T10:38:29.363Z,-0.10
2019-01-19T10:41:00.704Z,-0.10
2019-01-19T10:43:31.983Z,-0.10
2019-01-19T10:46:03.334Z,0.00
2019-01-19T10:48:34.620Z,0.00
2019-01-19T10:51:06.066Z,0.00
2019-01-19T10:53:37.354Z,0.00
2019-01-19T10:56:08.780Z,0.10
2019-01-19T10:58:40.087Z,0.10
2019-01-19T11:01:11.430Z,0.10
2019-01-19T11:03:42.737Z,0.10
2019-01-19T11:06:14.089Z,0.20
2019-01-19T11:08:45.328Z,0.20
2019-01-19T11:11:16.627Z,0.20
2019-01-19T11:13:47.929Z,0.20
2019-01-19T11:16:19.255Z,0.30
2019-01-19T11:18:50.571Z,0.30
2019-01-19T11:21:21.850Z,0.30
2019-01-19T11:23:53.180Z,0.30
2019-01-19T11:26:24.672Z,0.30
2019-01-19T11:28:56.004Z,0.40
2019-01-19T11:31:27.417Z,0.40
2019-01-19T11:33:58.776Z,0.40
2019-01-19T11:36:30.042Z,0.50
2019-01-19T11:39:01.364Z,0.50
2019-01-19T11:41:32.858Z,0.50
2019-01-19T11:44:04.263Z,0.50
2019-01-19T11:46:35.912Z,0.50
2019-01-19T11:49:07.312Z,0.60
2019-01-19T11:51:38.587Z,0.60
2019-01-19T11:54:10.850Z,0.60
2019-01-19T11:56:42.380Z,0.70
2019-01-19T11:59:14.474Z,0.70
2019-01-19T12:01:45.906Z,0.70
2019-01-19T12:04:17.261Z,0.70
2019-01-19T12:06:48.656Z,0.70
2019-01-19T12:09:20.215Z,0.70
2019-01-19T12:11:51.875Z,0.80
2019-01-19T12:14:23.461Z,0.80
2019-01-19T12:16:54.874Z,0.80
2019-01-19T12:19:26.126Z,0.90
2019-01-19T12:21:57.665Z,0.90
2019-01-19T12:24:29.006Z,0.90
2019-01-19T12:27:01.273Z,1.00
2019-01-19T12:29:32.676Z,1.00
2019-01-19T12:32:04.108Z,1.00
2019-01-19T12:34:35.369Z,1.00
2019-01-19T12:37:06.629Z,1.10
2019-01-19T12:39:37.959Z,1.10
2019-01-19T12:42:09.496Z,1.20
2019-01-19T12:44:40.787Z,1.20
2019-01-19T12:47:12.064Z,1.20
2019-01-19T12:49:43.593Z,1.30
2019-01-19T12:52:14.878Z,1.30
2019-01-19T12:54:46.207Z,1.30
2019-01-19T12:57:17.526Z,1.30
2019-01-19T12:59:49.178Z,1.40
2019-01-19T13:02:20.623Z,1.40
2019-01-19T13:04:51.917Z,1.40
2019-01-19T13:07:23.980Z,1.50
2019-01-19T13:09:55.379Z,1.50
2019-01-19T13:12:26.673Z,1.50
2019-01-19T13:15:03.697Z,1.50
2019-01-19T13:17:45.672Z,1.50
2019-01-19T13:20:25.442Z,1.60
2019-01-19T13:23:45.088Z,1.60
2019-01-19T13:26:42.270Z,1.60
2019-01-19T13:29:39.168Z,1.70
2019-01-19T13:32:39.278Z,1.70
2019-01-19T13:35:41.507Z,1.70
2019-01-19T13:38:42.695Z,1.70
2019-01-19T13:41:48.618Z,1.70
2019-01-19T13:44:48.023Z,1.80
2019-01-19T13:47:43.384Z,1.80
2019-01-19T13:50:29.127Z,1.80
2019-01-19T13:53:49.954Z,1.90
2019-01-19T13:56:38.929Z,1.90
2019-01-19T13:59:36.863Z,1.80
2019-01-19T14:02:51.612Z,1.90
2019-01-19T14:05:31.336Z,1.90
2019-01-19T14:08:20.630Z,1.90
2019-01-19T14:11:09.611Z,1.90
2019-01-19T14:14:15.663Z,1.90
2019-01-19T14:17:24.784Z,1.90
2019-01-19T14:20:10.635Z,1.90
2019-01-19T14:23:13.628Z,1.90
2019-01-19T14:26:28.376Z,1.90
2019-01-19T14:29:38.235Z,1.90
2019-01-19T14:32:18.324Z,1.90
2019-01-19T14:35:25.088Z,1.90
2019-01-19T14:38:31.320Z,1.90
2019-01-19T14:41:26.392Z,1.90
2019-01-19T14:44:26.058Z,1.90
2019-01-19T14:47:24.312Z,1.90
2019-01-19T14:50:32.066Z,1.90
2019-01-19T14:53:44.069Z,1.90
2019-01-19T14:56:36.435Z,1.90
2019-01-19T14:59:28.489Z,1.90
2019-01-19T15:02:27.776Z,1.90
2019-01-19T15:05:22.969Z,1.90
2019-01-19T15:08:08.886Z,2.00
2019-01-19T15:11:08.736Z,1.90
2019-01-19T15:13:54.401Z,1.90
2019-01-19T15:16:34.139Z,1.90
2019-01-19T15:19:29.465Z,1.90
2019-01-19T15:22:15.210Z,1.90
2019-01-19T15:24:58.279Z,1.90
2019-01-19T15:27:44.266Z,1.90
2019-01-19T15:30:38.134Z,1.90
2019-01-19T15:34:05.466Z,1.90
2019-01-19T15:37:19.038Z,1.90
2019-01-19T15:40:37.563Z,1.90
2019-01-19T15:43:58.605Z,1.90
2019-01-19T15:47:05.602Z,1.80
2019-01-19T15:50:00.770Z,1.80
2019-01-19T15:52:43.690Z,1.80
2019-01-19T15:55:49.830Z,1.80
2019-01-19T15:58:44.627Z,1.70
2019-01-19T16:01:52.049Z,1.70
2019-01-19T16:04:35.084Z,1.60
2019-01-19T16:07:33.573Z,1.60
2019-01-19T16:10:13.611Z,1.50
2019-01-19T16:13:12.028Z,1.50
2019-01-19T16:16:09.316Z,1.50
2019-01-19T16:18:58.537Z,1.40
2019-01-19T16:21:50.715Z,1.40
2019-01-19T16:24:48.866Z,1.30
2019-01-19T16:28:01.086Z,1.30
2019-01-19T16:30:43.969Z,1.30
2019-01-19T16:33:45.420Z,1.30
2019-01-19T16:36:52.218Z,1.20
2019-01-19T16:40:02.947Z,1.20
2019-01-19T16:42:43.080Z,1.20
2019-01-19T16:45:22.915Z,1.10
2019-01-19T16:48:18.279Z,1.10
2019-01-19T16:51:07.195Z,1.10
2019-01-19T16:53:47.181Z,1.00
2019-01-19T16:56:48.736Z,1.00
2019-01-19T16:59:56.563Z,1.00
2019-01-19T17:02:53.313Z,0.90
2019-01-19T17:05:47.237Z,0.90
2019-01-19T17:08:39.727Z,0.90
2019-01-19T17:11:42.871Z,0.80
2019-01-19T17:14:32.022Z,0.80
2019-01-19T17:17:30.043Z,0.70
2019-01-19T17:20:15.768Z,0.70
2019-01-19T17:23:08.100Z,0.70
2019-01-19T17:26:15.716Z,0.60
2019-01-19T17:29:16.540Z,0.60
2019-01-19T17:32:11.661Z,0.60
2019-01-19T17:35:06.991Z,0.60
2019-01-19T17:37:47.170Z,0.60
2019-01-19T17:40:33.292Z,0.60
2019-01-19T17:43:25.943Z,0.50
2019-01-19T17:46:17.560Z,0.50
2019-01-19T17:49:03.705Z,0.50
2019-01-19T17:52:03.289Z,0.50
2019-01-19T17:55:04.031Z,0.50
2019-01-19T17:58:10.144Z,0.40
2019-01-19T18:01:21.599Z,0.40
2019-01-19T18:04:27.665Z,0.40
2019-01-19T18:07:32.485Z,0.40
2019-01-19T18:10:40.486Z,0.40
2019-01-19T18:13:32.292Z,0.30
2019-01-19T18:16:28.723Z,0.30
2019-01-19T18:19:15.048Z,0.30
2019-01-19T18:25:37.309Z,0.30
2019-01-19T18:28:32.952Z,0.30
2019-01-19T18:31:15.987Z,0.30
2019-01-19T18:34:07.522Z,0.20
2019-01-19T18:36:47.427Z,0.20
2019-01-19T18:39:27.602Z,0.20
2019-01-19T18:42:10.595Z,0.20
2019-01-19T18:45:08.611Z,0.20
2019-01-19T18:48:10.177Z,0.20
2019-01-19T18:50:50.589Z,0.20
2019-01-19T18:53:53.681Z,0.20
2019-01-19T18:57:00.895Z,0.20
2019-01-19T19:00:05.624Z,0.20
2019-01-19T19:02:42.681Z,0.20
2019-01-19T19:05:41.246Z,0.10
2019-01-19T19:08:38.982Z,0.10
2019-01-19T19:11:40.369Z,0.10
2019-01-19T19:14:29.022Z,0.00
2019-01-19T19:17:21.655Z,0.00
2019-01-19T19:20:21.590Z,-0.10
2019-01-19T19:23:13.577Z,-0.10
2019-01-19T19:25:59.600Z,-0.10
2019-01-19T19:29:02.568Z,-0.20
2019-01-19T19:31:45.966Z,-0.20
2019-01-19T19:34:50.337Z,-0.20
2019-01-19T19:37:36.415Z,-0.30
2019-01-19T19:40:25.646Z,-0.30
2019-01-19T19:43:08.554Z,-0.40
2019-01-19T19:45:54.826Z,-0.40
2019-01-19T19:48:51.826Z,-0.40
2019-01-19T19:51:53.906Z,-0.40
2019-01-19T19:54:25.204Z,-0.40
2019-01-19T19:56:56.606Z,-0.50
2019-01-19T19:59:46.435Z,-0.50
2019-01-19T20:02:17.821Z,-0.60
2019-01-19T20:04:49.121Z,-0.60
2019-01-19T20:07:20.465Z,-0.60
2019-01-19T20:09:51.751Z,-0.60
2019-01-19T20:12:23.176Z,-0.60
2019-01-19T20:15:13.165Z,-0.60
2019-01-19T20:17:44.426Z,-0.60
2019-01-19T20:20:15.769Z,-0.60
2019-01-19T20:22:47.152Z,-0.60
2019-01-19T20:28:08.212Z,-0.60
2019-01-19T20:30:39.495Z,-0.60
2019-01-19T20:33:10.793Z,-0.60
2019-01-19T20:35:42.116Z,-0.70
2019-01-19T20:38:13.405Z,-0.70
2019-01-19T20:40:44.725Z,-0.70
2019-01-19T20:43:18.072Z,-0.70
2019-01-19T20:45:49.451Z,-0.70
2019-01-19T20:48:21.483Z,-0.70
2019-01-19T20:51:00.797Z,-0.70
2019-01-19T20:53:32.810Z,-0.70
2019-01-19T20:56:04.188Z,-0.70
2019-01-19T20:58:38.980Z,-0.70
2019-01-19T21:01:10.967Z,-0.70
2019-01-19T21:03:42.245Z,-0.70
2019-01-19T21:06:13.600Z,-0.70
2019-01-19T21:08:44.887Z,-0.70
2019-01-19T21:11:16.210Z,-0.70
2019-01-19T21:13:47.509Z,-0.70
2019-01-19T21:16:18.829Z,-0.70
2019-01-19T21:18:50.134Z,-0.70
2019-01-19T21:21:21.466Z,-0.80
2019-01-19T21:23:52.768Z,-0.70
2019-01-19T21:26:24.076Z,-0.80
2019-01-19T21:28:55.401Z,-0.80
2019-01-19T21:31:26.710Z,-0.80
2019-01-19T21:33:58.167Z,-0.80
2019-01-19T21:36:29.518Z,-0.80
2019-01-19T21:39:00.755Z,-0.80
2019-01-19T21:41:32.056Z,-0.90
2019-01-19T21:44:03.632Z,-0.90
2019-01-19T21:46:34.953Z,-0.90
2019-01-19T21:49:06.283Z,-0.90
2019-01-19T21:51:37.591Z,-0.90
2019-01-19T21:54:09.564Z,-0.80
2019-01-19T21:56:40.982Z,-0.90
2019-01-19T21:59:12.297Z,-0.90
2019-01-19T22:01:43.562Z,-0.90
2019-01-19T22:04:14.877Z,-0.90
2019-01-19T22:06:46.274Z,-0.90
2019-01-19T22:09:17.599Z,-1.00
2019-01-19T22:11:48.998Z,-0.90
2019-01-19T22:14:20.422Z,-1.00
2019-01-19T22:16:51.729Z,-1.00
2019-01-19T22:19:23.029Z,-1.10
2019-01-19T22:21:54.285Z,-1.10
2019-01-19T22:24:44.144Z,-1.10
2019-01-19T22:27:17.224Z,-1.10
2019-01-19T22:29:48.621Z,-1.20
2019-01-19T22:32:19.919Z,-1.20
2019-01-19T22:34:51.322Z,-1.20
2019-01-19T22:37:22.622Z,-1.20
2019-01-19T22:39:54.017Z,-1.20
2019-01-19T22:42:25.286Z,-1.20
2019-01-19T22:44:56.614Z,-1.30
2019-01-19T22:47:27.887Z,-1.30
2019-01-19T22:49:59.216Z,-1.30
2019-01-19T22:52:30.624Z,-1.30
2019-01-19T22:55:01.951Z,-1.30
2019-01-19T22:57:33.223Z,-1.30
2019-01-19T23:00:27.492Z,-1.30
2019-01-19T23:02:58.808Z,-1.30
2019-01-19T23:05:30.201Z,-1.30
2019-01-19T23:08:01.501Z,-1.30
2019-01-19T23:10:32.803Z,-1.30
2019-01-19T23:13:04.197Z,-1.30
2019-01-19T23:15:35.521Z,-1.30
2019-01-19T23:18:06.813Z,-1.30
2019-01-19T23:20:38.191Z,-1.30
2019-01-19T23:23:09.512Z,-1.30
2019-01-19T23:25:40.842Z,-1.30
2019-01-19T23:28:12.122Z,-1.30
2019-01-19T23:30:43.471Z,-1.40
2019-01-19T23:33:14.862Z,-1.30
2019-01-19T23:35:46.190Z,-1.40
2019-01-19T23:38:17.614Z,-1.40
2019-01-19T23:40:49.125Z,-1.40
2019-01-19T23:43:20.397Z,-1.40
2019-01-19T23:45:52.059Z,-1.40
2019-01-19T23:48:23.347Z,-1.40
2019-01-19T23:50:54.729Z,-1.40
2019-01-19T23:53:26.016Z,-1.50
2019-01-19T23:55:57.347Z,-1.50
2019-01-19T23:58:28.654Z,-1.50
